createdAt,value
2023-03-05T00:00:22.636Z,4.90
2023-03-05T00:03:11.955Z,5.35
2023-03-05T00:05:43.038Z,4.95
2023-03-05T00:08:12.236Z,6.35
2023-03-05T00:10:41.664Z,5.22
2023-03-05T00:13:10.712Z,6.85
2023-03-05T00:15:43.278Z,4.72
2023-03-05T00:18:12.687Z,5.45
2023-03-05T00:20:43.518Z,3.97
2023-03-05T00:23:12.915Z,5.70
2023-03-05T00:25:42.921Z,5.55
2023-03-05T00:28:12.850Z,5.65
2023-03-05T00:33:14.515Z,4.65
2023-03-05T00:35:47.568Z,4.45
2023-03-05T00:38:17.088Z,4.50
2023-03-05T00:40:46.628Z,4.65
2023-03-05T00:43:15.843Z,4.32
2023-03-05T00:45:45.206Z,4.28
2023-03-05T00:48:14.812Z,5.55
2023-03-05T00:50:45.573Z,4.78
2023-03-05T00:53:14.800Z,3.70
2023-03-05T00:55:44.267Z,3.63
2023-03-05T00:58:13.500Z,2.50
2023-03-05T01:00:43.453Z,4.20
2023-03-05T01:03:12.566Z,3.60
2023-03-05T01:05:41.923Z,4.60
2023-03-05T01:08:12.565Z,4.40
2023-03-05T01:10:42.265Z,2.80
2023-03-05T01:13:11.541Z,3.92
2023-03-05T01:15:40.926Z,3.88
2023-03-05T01:18:10.388Z,2.97
2023-03-05T01:20:39.754Z,3.35
2023-03-05T01:23:09.063Z,3.30
2023-03-05T01:25:39.921Z,3.88
2023-03-05T01:28:09.600Z,3.40
2023-03-05T01:30:39.284Z,2.55
2023-03-05T01:33:08.410Z,4.22
2023-03-05T01:35:37.970Z,3.97
2023-03-05T01:38:07.213Z,3.53
2023-03-05T01:40:38.024Z,4.13
2023-03-05T01:43:24.258Z,3.38
2023-03-05T01:46:34.834Z,4.05
2023-03-05T01:49:16.153Z,3.97
2023-03-05T01:51:56.569Z,3.40
2023-03-05T01:54:32.551Z,4.20
2023-03-05T01:57:11.011Z,3.72
2023-03-05T01:59:43.166Z,3.60
2023-03-05T02:02:14.346Z,4.28
2023-03-05T02:04:47.656Z,4.00
2023-03-05T02:07:19.061Z,4.03
2023-03-05T02:09:48.470Z,3.47
2023-03-05T02:12:19.547Z,3.55
2023-03-05T02:14:58.505Z,3.10
2023-03-05T02:17:29.593Z,4.53
2023-03-05T02:20:06.462Z,3.15
2023-03-05T02:22:37.682Z,3.53
2023-03-05T02:25:16.344Z,3.50
2023-03-05T02:27:53.196Z,3.53
2023-03-05T02:30:22.722Z,3.00
2023-03-05T02:32:52.337Z,3.17
2023-03-05T02:35:23.150Z,2.83
2023-03-05T02:37:54.120Z,2.70
2023-03-05T02:40:23.520Z,2.28
2023-03-05T02:42:53.034Z,2.22
2023-03-05T02:45:22.471Z,3.17
2023-03-05T02:47:52.032Z,2.70
2023-03-05T02:50:21.274Z,2.90
2023-03-05T02:52:50.831Z,3.63
2023-03-05T02:55:22.211Z,3.22
2023-03-05T02:57:51.818Z,2.75
2023-03-05T03:00:21.414Z,3.03
2023-03-05T03:02:51.201Z,2.97
2023-03-05T03:05:20.518Z,2.78
2023-03-05T03:07:49.963Z,2.63
2023-03-05T03:10:19.646Z,3.28
2023-03-05T03:12:50.625Z,2.90
2023-03-05T03:15:20.079Z,3.23
2023-03-05T03:17:49.593Z,2.53
2023-03-05T03:20:19.818Z,3.15
2023-03-05T03:22:49.613Z,3.63
2023-03-05T03:25:20.874Z,2.92
2023-03-05T03:27:55.848Z,3.97
2023-03-05T03:31:17.809Z,3.25
2023-03-05T03:33:47.463Z,3.55
2023-03-05T03:36:16.606Z,2.35
2023-03-05T03:38:46.036Z,2.90
2023-03-05T03:41:15.231Z,3.53
2023-03-05T03:43:46.070Z,3.38
2023-03-05T03:46:15.261Z,2.40
2023-03-05T03:48:44.620Z,2.97
2023-03-05T03:51:13.780Z,2.40
2023-03-05T03:53:43.149Z,2.20
2023-03-05T03:56:12.215Z,2.73
2023-03-05T03:58:41.606Z,3.13
2023-03-05T04:01:12.429Z,2.30
2023-03-05T04:03:41.878Z,2.65
2023-03-05T04:06:11.014Z,2.90
2023-03-05T04:08:40.701Z,2.92
2023-03-05T04:11:10.115Z,2.58
2023-03-05T04:13:39.788Z,3.03
2023-03-05T04:16:09.441Z,2.72
2023-03-05T04:21:09.478Z,3.95
2023-03-05T04:23:39.389Z,3.20
2023-03-05T04:26:08.955Z,3.45
2023-03-05T04:28:38.525Z,3.05
2023-03-05T04:31:07.646Z,2.65
2023-03-05T04:33:37.011Z,2.97
2023-03-05T04:36:08.675Z,3.13
2023-03-05T04:38:38.358Z,2.80
2023-03-05T04:41:07.504Z,2.85
2023-03-05T04:43:36.965Z,2.33
2023-03-05T04:46:06.384Z,3.38
2023-03-05T04:48:35.750Z,2.60
2023-03-05T04:51:06.663Z,2.83
2023-03-05T04:53:36.178Z,3.20
2023-03-05T04:56:05.649Z,3.00
2023-03-05T04:58:35.115Z,3.15
2023-03-05T05:01:04.889Z,3.53
2023-03-05T05:03:35.289Z,3.35
2023-03-05T05:08:35.132Z,3.30
2023-03-05T05:11:06.463Z,3.42
2023-03-05T05:13:36.525Z,3.33
2023-03-05T05:16:08.878Z,3.97
2023-03-05T05:18:38.481Z,3.53
2023-03-05T05:21:10.533Z,3.45
2023-03-05T05:23:41.487Z,3.30
2023-03-05T05:26:14.294Z,2.90
2023-03-05T05:28:45.419Z,3.40
2023-03-05T05:31:16.502Z,3.23
2023-03-05T05:33:49.352Z,3.37
2023-03-05T05:36:22.388Z,3.63
2023-03-05T05:38:53.514Z,3.08
2023-03-05T05:41:22.779Z,2.33
2023-03-05T05:43:52.197Z,3.17
2023-03-05T05:46:23.006Z,2.80
2023-03-05T05:48:52.713Z,3.10
2023-03-05T05:51:23.977Z,2.90
2023-03-05T05:53:54.907Z,3.10
2023-03-05T05:56:24.202Z,3.40
2023-03-05T05:58:53.617Z,4.10
2023-03-05T06:01:25.115Z,3.50
2023-03-05T06:03:55.044Z,3.20
2023-03-05T06:06:26.188Z,2.83
2023-03-05T06:08:57.613Z,2.90
2023-03-05T06:11:26.880Z,2.97
2023-03-05T06:13:56.639Z,4.88
2023-03-05T06:16:26.748Z,3.10
2023-03-05T06:18:56.356Z,3.17
2023-03-05T06:21:25.855Z,2.90
2023-03-05T06:23:58.691Z,3.08
2023-03-05T06:26:28.224Z,3.07
2023-03-05T06:28:59.233Z,2.78
2023-03-05T06:31:29.957Z,1.80
2023-03-05T06:34:01.834Z,2.93
2023-03-05T06:36:31.851Z,2.70
2023-03-05T06:39:03.782Z,2.40
2023-03-05T06:41:33.804Z,2.97
2023-03-05T06:44:04.272Z,2.60
2023-03-05T06:46:37.257Z,2.67
2023-03-05T06:49:07.210Z,2.50
2023-03-05T06:51:38.952Z,1.98
2023-03-05T06:54:12.261Z,2.80
2023-03-05T06:56:43.350Z,2.55
2023-03-05T06:59:15.070Z,3.00
2023-03-05T07:01:44.326Z,2.45
2023-03-05T07:04:15.248Z,2.88
2023-03-05T07:06:44.805Z,2.72
2023-03-05T07:09:16.806Z,2.83
2023-03-05T07:11:46.027Z,2.30
2023-03-05T07:14:15.497Z,2.33
2023-03-05T07:16:44.657Z,2.55
2023-03-05T07:19:14.010Z,2.03
2023-03-05T07:21:43.296Z,2.73
2023-03-05T07:24:15.952Z,2.22
2023-03-05T07:26:46.904Z,2.38
2023-03-05T07:29:17.872Z,2.30
2023-03-05T07:31:47.375Z,2.63
2023-03-05T07:34:17.125Z,2.63
2023-03-05T07:36:47.059Z,2.33
2023-03-05T07:39:19.177Z,2.17
2023-03-05T07:41:51.011Z,2.35
2023-03-05T07:44:20.763Z,2.75
2023-03-05T07:46:50.124Z,2.90
2023-03-05T07:49:20.952Z,2.83
2023-03-05T07:51:50.301Z,2.65
2023-03-05T07:54:21.162Z,3.00
2023-03-05T07:56:50.374Z,2.33
2023-03-05T07:59:19.739Z,2.53
2023-03-05T08:01:48.871Z,2.33
2023-03-05T08:04:18.449Z,2.38
2023-03-05T08:06:48.092Z,2.53
2023-03-05T08:11:47.808Z,2.70
2023-03-05T08:14:17.877Z,2.28
2023-03-05T08:16:50.515Z,2.30
2023-03-05T08:19:21.361Z,2.00
2023-03-05T08:21:50.573Z,2.78
2023-03-05T08:24:19.942Z,2.92
2023-03-05T08:26:50.484Z,3.00
2023-03-05T08:29:20.266Z,2.83
2023-03-05T08:31:50.032Z,2.53
2023-03-05T08:34:20.083Z,2.22
2023-03-05T08:36:49.619Z,2.80
2023-03-05T08:39:19.669Z,2.50
2023-03-05T08:41:50.202Z,2.63
2023-03-05T08:44:19.826Z,2.28
2023-03-05T08:46:49.080Z,2.07
2023-03-05T08:49:18.485Z,2.60
2023-03-05T08:51:47.604Z,2.60
2023-03-05T08:54:16.984Z,2.00
2023-03-05T08:56:46.137Z,2.20
2023-03-05T08:59:16.929Z,2.70
2023-03-05T09:01:46.276Z,1.70
2023-03-05T09:04:16.076Z,1.75
2023-03-05T09:09:15.054Z,1.70
2023-03-05T09:11:44.607Z,2.38
2023-03-05T09:14:15.408Z,2.28
2023-03-05T09:16:44.718Z,1.80
2023-03-05T09:19:15.264Z,2.13
2023-03-05T09:21:44.821Z,4.50
2023-03-05T09:24:14.383Z,1.70
2023-03-05T09:26:47.123Z,1.83
2023-03-05T09:29:19.476Z,1.67
2023-03-05T09:31:52.690Z,1.60
2023-03-05T09:34:22.762Z,2.05
2023-03-05T09:36:52.062Z,1.35
2023-03-05T09:39:21.408Z,1.73
2023-03-05T09:42:14.503Z,1.88
2023-03-05T09:44:52.952Z,1.80
2023-03-05T09:47:37.311Z,1.95
2023-03-05T09:50:23.684Z,2.05
2023-03-05T09:52:58.951Z,2.40
2023-03-05T09:55:34.722Z,1.80
2023-03-05T09:58:08.121Z,2.03
2023-03-05T10:00:45.167Z,1.60
2023-03-05T10:03:23.713Z,1.92
2023-03-05T10:06:03.216Z,1.70
2023-03-05T10:08:43.417Z,1.55
2023-03-05T10:11:39.438Z,1.48
2023-03-05T10:14:15.715Z,2.08
2023-03-05T10:17:19.723Z,1.70
2023-03-05T10:20:18.728Z,1.80
2023-03-05T10:23:06.543Z,1.90
2023-03-05T10:26:03.217Z,1.80
2023-03-05T10:28:42.872Z,2.10
2023-03-05T10:31:34.062Z,1.80
2023-03-05T10:34:32.666Z,1.90
2023-03-05T10:37:20.735Z,2.10
2023-03-05T10:40:16.506Z,1.73
2023-03-05T10:42:55.146Z,1.90
2023-03-05T10:45:29.367Z,2.15
2023-03-05T10:48:06.532Z,1.75
2023-03-05T10:50:40.456Z,2.28
2023-03-05T10:53:18.701Z,2.50
2023-03-05T10:55:48.434Z,2.42
2023-03-05T10:58:19.387Z,2.10
2023-03-05T11:01:07.177Z,1.90
2023-03-05T11:03:51.914Z,2.13
2023-03-05T11:06:35.953Z,2.15
2023-03-05T11:09:29.373Z,2.00
2023-03-05T11:12:16.141Z,1.83
2023-03-05T11:14:47.728Z,2.35
2023-03-05T11:17:30.294Z,1.52
2023-03-05T11:20:23.797Z,1.42
2023-03-05T11:23:20.128Z,1.60
2023-03-05T11:26:00.552Z,1.70
2023-03-05T11:28:34.142Z,1.60
2023-03-05T11:31:10.062Z,1.70
2023-03-05T11:33:39.854Z,1.77
2023-03-05T11:36:24.610Z,1.67
2023-03-05T11:38:59.629Z,2.13
2023-03-05T11:41:33.784Z,2.05
2023-03-05T11:44:05.805Z,2.13
2023-03-05T11:46:42.265Z,1.42
2023-03-05T11:49:17.832Z,2.00
2023-03-05T11:51:53.132Z,2.72
2023-03-05T11:54:30.099Z,2.45
2023-03-05T11:57:01.734Z,1.50
2023-03-05T11:59:36.164Z,1.90
2023-03-05T12:02:18.981Z,1.70
2023-03-05T12:04:50.285Z,1.80
2023-03-05T12:07:23.991Z,1.60
2023-03-05T12:09:55.743Z,2.30
2023-03-05T12:12:38.512Z,1.55
2023-03-05T12:15:34.977Z,1.95
2023-03-05T12:18:16.211Z,1.85
2023-03-05T12:20:51.604Z,1.50
2023-03-05T12:23:23.672Z,1.70
2023-03-05T12:25:57.065Z,1.83
2023-03-05T12:28:56.220Z,2.20
2023-03-05T12:31:37.841Z,2.00
2023-03-05T12:34:47.172Z,2.00
2023-03-05T12:37:55.287Z,2.20
2023-03-05T12:40:26.367Z,1.92
2023-03-05T12:42:59.523Z,2.35
2023-03-05T12:45:46.603Z,2.10
2023-03-05T12:48:45.345Z,1.83
2023-03-05T12:51:37.850Z,1.83
2023-03-05T12:54:30.107Z,3.40
2023-03-05T12:57:02.225Z,1.77
2023-03-05T12:59:43.599Z,2.88
2023-03-05T13:02:27.664Z,1.92
2023-03-05T13:05:01.719Z,2.40
2023-03-05T13:07:33.208Z,1.88
2023-03-05T13:10:04.790Z,1.98
2023-03-05T13:12:53.789Z,2.22
2023-03-05T13:15:27.064Z,2.33
2023-03-05T13:17:59.304Z,1.95
2023-03-05T13:20:37.684Z,2.13
2023-03-05T13:23:26.557Z,2.22
2023-03-05T13:26:01.807Z,2.28
2023-03-05T13:28:33.124Z,2.10
2023-03-05T13:31:12.327Z,2.35
2023-03-05T13:33:42.300Z,2.38
2023-03-05T13:36:18.291Z,1.67
2023-03-05T13:38:48.685Z,2.72
2023-03-05T13:41:23.606Z,2.50
2023-03-05T13:43:55.680Z,1.73
2023-03-05T13:46:28.812Z,2.17
2023-03-05T13:48:58.860Z,1.88
2023-03-05T13:51:43.455Z,1.73
2023-03-05T13:54:16.892Z,2.45
2023-03-05T13:56:55.645Z,1.95
2023-03-05T13:59:31.102Z,2.25
2023-03-05T14:02:02.947Z,2.00
2023-03-05T14:04:37.365Z,1.70
2023-03-05T14:07:09.010Z,1.20
2023-03-05T14:09:48.892Z,2.55
2023-03-05T14:12:30.416Z,2.10
2023-03-05T14:15:07.610Z,1.60
2023-03-05T14:17:44.422Z,1.60
2023-03-05T14:20:29.788Z,1.30
2023-03-05T14:23:01.452Z,1.00
2023-03-05T14:25:37.884Z,1.48
2023-03-05T14:28:22.117Z,1.73
2023-03-05T14:30:58.333Z,1.60
2023-03-05T14:33:31.470Z,1.20
2023-03-05T14:36:04.165Z,1.40
2023-03-05T14:38:35.469Z,1.42
2023-03-05T14:41:20.683Z,1.30
2023-03-05T14:43:50.215Z,1.50
2023-03-05T14:46:19.337Z,1.92
2023-03-05T14:48:50.256Z,2.05
2023-03-05T14:51:19.808Z,0.80
2023-03-05T14:53:52.201Z,1.00
2023-03-05T14:56:25.901Z,1.45
2023-03-05T14:58:56.709Z,1.40
2023-03-05T15:01:28.383Z,1.45
2023-03-05T15:04:01.236Z,0.95
2023-03-05T15:06:34.099Z,1.75
2023-03-05T15:09:05.238Z,1.13
2023-03-05T15:11:34.454Z,1.27
2023-03-05T15:16:34.957Z,1.10
2023-03-05T15:19:05.705Z,1.08
2023-03-05T15:21:36.980Z,0.93
2023-03-05T15:24:07.096Z,0.98
2023-03-05T15:26:37.468Z,1.30
2023-03-05T15:29:06.969Z,1.40
2023-03-05T15:31:39.064Z,1.13
2023-03-05T15:34:10.251Z,1.30
2023-03-05T15:36:39.743Z,1.20
2023-03-05T15:41:38.135Z,1.42
2023-03-05T15:44:07.835Z,1.25
2023-03-05T15:46:37.003Z,1.40
2023-03-05T15:49:06.614Z,1.52
2023-03-05T15:51:37.038Z,1.30
2023-03-05T15:54:06.977Z,1.95
2023-03-05T15:56:36.649Z,1.90
2023-03-05T15:59:06.170Z,2.22
2023-03-05T16:01:36.393Z,2.30
2023-03-05T16:04:06.462Z,2.55
2023-03-05T16:06:37.558Z,1.67
2023-03-05T16:09:07.815Z,1.52
2023-03-05T16:11:41.131Z,3.00
2023-03-05T16:14:12.902Z,2.67
2023-03-05T16:16:42.693Z,3.28
2023-03-05T16:19:14.983Z,3.75
2023-03-05T16:21:45.830Z,3.83
2023-03-05T16:24:15.764Z,3.20
2023-03-05T16:26:46.537Z,5.43
2023-03-05T16:29:16.468Z,4.13
2023-03-05T16:31:48.112Z,3.70
2023-03-05T16:34:18.926Z,6.15
2023-03-05T16:36:52.814Z,3.55
2023-03-05T16:39:24.545Z,5.60
2023-03-05T16:41:54.072Z,5.20
2023-03-05T16:44:23.619Z,3.80
2023-03-05T16:46:54.248Z,5.90
2023-03-05T16:49:25.733Z,4.05
2023-03-05T16:52:01.355Z,4.32
2023-03-05T16:54:41.470Z,5.45
2023-03-05T16:57:11.913Z,5.50
2023-03-05T17:02:13.444Z,3.45
2023-03-05T17:04:43.730Z,4.97
2023-03-05T17:07:14.943Z,3.88
2023-03-05T17:09:44.957Z,3.30
2023-03-05T17:12:14.374Z,3.20
2023-03-05T17:14:44.416Z,3.88
2023-03-05T17:17:13.665Z,2.80
2023-03-05T17:19:43.094Z,3.65
2023-03-05T17:22:16.145Z,4.30
2023-03-05T17:24:47.404Z,4.28
2023-03-05T17:27:18.832Z,4.30
2023-03-05T17:29:48.789Z,3.28
2023-03-05T17:32:18.054Z,4.28
2023-03-05T17:34:47.971Z,4.10
2023-03-05T17:37:19.239Z,4.18
2023-03-05T17:39:48.898Z,5.03
2023-03-05T17:42:20.687Z,5.85
2023-03-05T17:44:52.325Z,5.85
2023-03-05T17:47:23.121Z,6.32
2023-03-05T17:50:00.822Z,6.88
2023-03-05T17:52:34.645Z,9.57
2023-03-05T17:55:08.952Z,6.85
2023-03-05T17:57:43.019Z,6.63
2023-03-05T18:00:17.661Z,7.65
2023-03-05T18:02:49.221Z,5.55
2023-03-05T18:05:19.887Z,7.53
2023-03-05T18:07:53.567Z,6.45
2023-03-05T18:10:25.408Z,6.30
2023-03-05T18:12:57.717Z,6.35
2023-03-05T18:15:29.378Z,4.88
2023-03-05T18:17:59.758Z,7.00
2023-03-05T18:23:03.565Z,7.90
2023-03-05T18:25:33.681Z,6.05
2023-03-05T18:28:14.466Z,5.90
2023-03-05T18:30:47.518Z,5.50
2023-03-05T18:33:20.834Z,4.88
2023-03-05T18:35:54.275Z,4.32
2023-03-05T18:38:26.970Z,4.68
2023-03-05T18:40:57.808Z,5.18
2023-03-05T18:43:27.257Z,5.72
2023-03-05T18:45:58.461Z,6.13
2023-03-05T18:48:28.169Z,5.00
2023-03-05T18:50:57.749Z,5.07
2023-03-05T18:53:28.368Z,4.20
2023-03-05T18:55:58.253Z,3.90
2023-03-05T18:58:27.473Z,5.43
2023-03-05T19:00:57.045Z,3.65
2023-03-05T19:03:27.152Z,4.95
2023-03-05T19:05:57.057Z,4.43
2023-03-05T19:08:30.012Z,2.72
2023-03-05T19:11:01.757Z,4.35
2023-03-05T19:13:44.266Z,2.85
2023-03-05T19:16:19.098Z,4.50
2023-03-05T19:19:22.623Z,3.65
2023-03-05T19:21:54.949Z,4.03
2023-03-05T19:24:27.362Z,3.90
2023-03-05T19:27:03.455Z,3.67
2023-03-05T19:29:37.627Z,4.25
2023-03-05T19:32:09.927Z,4.28
2023-03-05T19:34:39.429Z,4.10
2023-03-05T19:37:09.322Z,5.90
2023-03-05T19:39:43.457Z,3.53
2023-03-05T19:42:13.340Z,5.75
2023-03-05T19:44:43.269Z,6.78
2023-03-05T19:47:13.165Z,4.85
2023-03-05T19:49:42.496Z,3.38
2023-03-05T19:52:14.036Z,4.93
2023-03-05T19:54:47.243Z,4.43
2023-03-05T19:57:16.734Z,3.45
2023-03-05T19:59:48.367Z,3.77
2023-03-05T20:02:20.932Z,3.70
2023-03-05T20:04:51.324Z,4.70
2023-03-05T20:07:20.855Z,3.60
2023-03-05T20:09:53.371Z,3.53
2023-03-05T20:12:22.975Z,3.75
2023-03-05T20:14:52.059Z,3.38
2023-03-05T20:17:22.212Z,4.00
2023-03-05T20:19:55.458Z,4.15
2023-03-05T20:22:24.956Z,3.85
2023-03-05T20:24:55.718Z,4.17
2023-03-05T20:27:25.558Z,3.50
2023-03-05T20:29:54.931Z,4.53
2023-03-05T20:32:24.299Z,4.43
2023-03-05T20:34:53.547Z,4.90
2023-03-05T20:38:20.872Z,5.18
2023-03-05T20:40:53.701Z,5.57
2023-03-05T20:43:25.926Z,4.35
2023-03-05T20:45:57.577Z,4.80
2023-03-05T20:48:28.503Z,4.97
2023-03-05T20:50:58.299Z,6.25
2023-03-05T20:55:58.075Z,4.78
2023-03-05T20:58:27.608Z,5.25
2023-03-05T21:00:56.737Z,6.13
2023-03-05T21:03:27.383Z,4.50
2023-03-05T21:05:59.392Z,3.47
2023-03-05T21:08:29.270Z,4.47
2023-03-05T21:11:00.098Z,5.78
2023-03-05T21:13:30.896Z,4.68
2023-03-05T21:16:00.787Z,4.47
2023-03-05T21:18:31.514Z,5.82
2023-03-05T21:21:00.838Z,4.70
2023-03-05T21:23:30.293Z,6.20
2023-03-05T21:26:02.122Z,4.93
2023-03-05T21:28:31.955Z,5.15
2023-03-05T21:31:09.236Z,4.45
2023-03-05T21:33:39.383Z,3.55
2023-03-05T21:36:11.366Z,3.83
2023-03-05T21:38:40.965Z,5.82
2023-03-05T21:41:12.120Z,5.68
2023-03-05T21:43:42.197Z,6.38
2023-03-05T21:46:12.507Z,6.53
2023-03-05T21:48:42.049Z,6.57
2023-03-05T21:52:03.616Z,8.57
2023-03-05T21:54:35.927Z,7.35
2023-03-05T21:57:09.002Z,7.75
2023-03-05T21:59:41.968Z,10.18
2023-03-05T22:02:13.635Z,11.48
2023-03-05T22:04:43.199Z,7.32
2023-03-05T22:07:12.829Z,4.40
2023-03-05T22:09:42.231Z,3.95
2023-03-05T22:12:43.283Z,5.15
2023-03-05T22:15:13.406Z,4.30
2023-03-05T22:17:42.614Z,4.05
2023-03-05T22:20:13.368Z,3.80
2023-03-05T22:22:43.922Z,3.78
2023-03-05T22:25:15.561Z,4.10
2023-03-05T22:27:46.806Z,4.05
2023-03-05T22:30:16.569Z,4.68
2023-03-05T22:32:45.682Z,3.78
2023-03-05T22:35:17.297Z,4.85
2023-03-05T22:37:46.444Z,5.38
2023-03-05T22:40:18.388Z,4.03
2023-03-05T22:42:49.269Z,4.25
2023-03-05T22:45:20.483Z,4.45
2023-03-05T22:47:51.425Z,4.40
2023-03-05T22:50:21.244Z,4.47
2023-03-05T22:52:50.428Z,4.43
2023-03-05T22:55:20.053Z,5.57
2023-03-05T22:57:50.889Z,4.75
2023-03-05T23:00:23.757Z,4.70
2023-03-05T23:02:53.860Z,5.03
2023-03-05T23:05:23.452Z,4.70
2023-03-05T23:07:52.528Z,5.80
2023-03-05T23:10:26.419Z,4.75
2023-03-05T23:12:59.717Z,6.13
2023-03-05T23:15:31.522Z,4.28
2023-03-05T23:18:01.250Z,3.53
2023-03-05T23:25:33.494Z,5.37
2023-03-05T23:28:06.074Z,3.83
2023-03-05T23:30:37.339Z,4.43
2023-03-05T23:33:08.866Z,4.75
2023-03-05T23:35:40.216Z,4.82
2023-03-05T23:38:12.956Z,3.35
2023-03-05T23:40:45.160Z,4.25
2023-03-05T23:43:17.086Z,3.58
2023-03-05T23:45:48.966Z,5.18
2023-03-05T23:48:19.247Z,4.30
2023-03-05T23:50:50.342Z,3.55
2023-03-05T23:53:21.058Z,3.40
2023-03-05T23:55:51.395Z,3.78
